Time;durP1;ratioP1;P1;durP2;ratioP2;P2;SDS_P1;SDS_P2;PMS_P1;PMS_P2;Temp;Humidity;BMP_temperature;BMP_pressure;BME280_temperature;BME280_humidity;BME280_pressure;Samples;Min_cycle;Max_cycle;Signal;HPM_P1;HPM_P2
2021/01/27 00:01:29;;;;;;;10.77;7.45;;;2.20;99.90;;;;;;5027050;28;20092;-82
2021/01/27 00:03:56;;;;;;;11.55;7.20;;;2.20;99.90;;;;;;5025054;28;20077;-80
2021/01/27 00:06:23;;;;;;;11.40;6.50;;;2.30;99.90;;;;;;5032758;28;20092;-80
2021/01/27 00:08:49;;;;;;;12.20;7.40;;;2.30;99.90;;;;;;5023659;28;20076;-82
2021/01/27 00:11:16;;;;;;;14.20;7.20;;;2.40;99.90;;;;;;5036301;28;20416;-81
2021/01/27 00:13:42;;;;;;;10.95;7.05;;;2.40;99.90;;;;;;5035190;28;20045;-79
2021/01/27 00:16:08;;;;;;;9.13;6.70;;;2.50;99.90;;;;;;5030412;28;20524;-81
2021/01/27 00:18:35;;;;;;;11.63;7.00;;;2.50;99.90;;;;;;5040061;28;20046;-79
2021/01/27 00:21:01;;;;;;;12.75;8.02;;;2.50;99.90;;;;;;5033808;28;20459;-81
2021/01/27 00:23:28;;;;;;;10.80;6.90;;;2.60;99.90;;;;;;5026681;28;20137;-80
2021/01/27 00:25:55;;;;;;;11.05;7.13;;;2.60;99.90;;;;;;5036895;28;20084;-80
2021/01/27 00:28:21;;;;;;;13.30;8.00;;;2.60;99.90;;;;;;5024085;28;20085;-78
2021/01/27 00:30:47;;;;;;;13.00;7.90;;;2.60;99.90;;;;;;5033513;28;20054;-79
2021/01/27 00:33:16;;;;;;;12.45;7.40;;;2.60;99.90;;;;;;5023371;28;20076;-79
2021/01/27 00:35:45;;;;;;;13.00;7.75;;;2.60;99.90;;;;;;5023470;28;20481;-78
2021/01/27 00:38:13;;;;;;;11.77;8.45;;;2.60;99.90;;;;;;5018552;28;20080;-78
2021/01/27 00:40:41;;;;;;;12.15;8.07;;;2.70;99.90;;;;;;5019037;28;20073;-80
2021/01/27 00:43:07;;;;;;;15.02;8.45;;;2.70;99.90;;;;;;5029806;28;20155;-81
2021/01/27 00:45:34;;;;;;;13.88;8.32;;;2.70;99.90;;;;;;5024786;28;20099;-78
2021/01/27 00:48:00;;;;;;;16.13;9.18;;;2.70;99.90;;;;;;5024828;28;20128;-79
2021/01/27 00:50:27;;;;;;;13.82;8.55;;;2.80;99.90;;;;;;5021654;28;20081;-80
2021/01/27 00:52:54;;;;;;;13.30;9.10;;;2.80;99.90;;;;;;5026272;28;20084;-80
2021/01/27 00:55:23;;;;;;;12.38;8.55;;;2.80;99.90;;;;;;5030506;28;20125;-79
2021/01/27 00:57:50;;;;;;;13.88;8.77;;;2.70;99.90;;;;;;5031684;28;20060;-80
2021/01/27 01:00:19;;;;;;;16.27;8.98;;;2.70;99.90;;;;;;5026939;28;20090;-78
2021/01/27 01:02:46;;;;;;;13.80;9.13;;;2.80;99.90;;;;;;5032757;28;20100;-78
2021/01/27 01:05:18;;;;;;;18.15;9.70;;;2.80;99.90;;;;;;5027484;28;20065;-80
2021/01/27 01:07:46;;;;;;;13.55;9.07;;;2.80;99.90;;;;;;5032578;28;20117;-78
2021/01/27 01:10:13;;;;;;;12.98;9.45;;;2.70;99.90;;;;;;5036323;28;20068;-79
2021/01/27 01:12:40;;;;;;;13.27;8.35;;;2.70;99.90;;;;;;5035401;28;20085;-78
2021/01/27 01:15:09;;;;;;;13.50;8.88;;;2.80;99.90;;;;;;5035446;28;20172;-78
2021/01/27 01:17:35;;;;;;;12.15;8.88;;;2.70;99.90;;;;;;5034752;28;20532;-78
2021/01/27 01:20:02;;;;;;;13.85;8.80;;;2.70;99.90;;;;;;5034738;28;20076;-77
2021/01/27 01:22:29;;;;;;;14.02;9.73;;;2.70;99.90;;;;;;5034380;28;20143;-78
2021/01/27 01:24:55;;;;;;;17.30;9.05;;;2.70;99.90;;;;;;5034541;28;20128;-78
2021/01/27 01:27:21;;;;;;;14.70;9.32;;;2.70;99.90;;;;;;5033998;28;20091;-79
2021/01/27 01:29:48;;;;;;;15.10;8.90;;;2.80;99.90;;;;;;5034300;28;20132;-78
2021/01/27 01:32:15;;;;;;;12.13;8.55;;;2.80;99.90;;;;;;5034095;28;20057;-79
2021/01/27 01:34:42;;;;;;;13.10;9.00;;;2.80;99.90;;;;;;5034725;28;20133;-78
2021/01/27 01:37:08;;;;;;;16.88;9.25;;;2.80;99.90;;;;;;5033990;28;20096;-78
2021/01/27 01:39:34;;;;;;;12.88;8.90;;;2.80;99.90;;;;;;5034159;28;20092;-75
2021/01/27 01:42:01;;;;;;;12.32;8.68;;;2.80;99.90;;;;;;5034970;28;20132;-79
2021/01/27 01:44:27;;;;;;;13.38;8.85;;;2.80;99.90;;;;;;5076051;22;20136;-78
2021/01/27 01:46:54;;;;;;;12.95;8.48;;;2.80;99.90;;;;;;5049934;28;20069;-77
2021/01/27 01:49:21;;;;;;;12.20;8.35;;;2.80;99.90;;;;;;5044241;28;20121;-77
2021/01/27 01:51:55;;;;;;;11.23;7.85;;;2.90;99.90;;;;;;5045295;28;20049;-78
2021/01/27 01:54:27;;;;;;;10.55;7.72;;;2.90;99.90;;;;;;5044699;28;20053;-78
2021/01/27 01:56:56;;;;;;;13.10;7.82;;;2.90;99.90;;;;;;5043959;28;20149;-78
2021/01/27 01:59:22;;;;;;;13.52;7.75;;;3.00;99.90;;;;;;5043222;28;20083;-78
2021/01/27 02:01:56;;;;;;;11.60;7.32;;;3.10;99.90;;;;;;5041933;28;20100;-78
2021/01/27 02:04:27;;;;;;;10.15;7.25;;;3.10;99.90;;;;;;5042944;28;20077;-78
2021/01/27 02:06:53;;;;;;;7.25;4.97;;;3.20;99.90;;;;;;5042518;28;20076;-78
2021/01/27 02:09:19;;;;;;;8.73;5.13;;;3.20;99.90;;;;;;5039177;28;20473;-78
2021/01/27 02:12:11;;;;;;;8.70;5.25;;;3.20;99.90;;;;;;5039046;28;20097;-78
2021/01/27 02:14:56;;;;;;;8.32;5.20;;;3.20;99.90;;;;;;5039171;28;20046;-78
2021/01/27 02:17:32;;;;;;;9.32;5.30;;;3.30;99.90;;;;;;5040210;28;20191;-78
2021/01/27 02:20:39;;;;;;;9.15;5.30;;;3.30;99.90;;;;;;5039414;28;20072;-78
2021/01/27 02:23:40;;;;;;;9.90;6.00;;;3.30;99.90;;;;;;5045113;28;20088;-78
2021/01/27 02:26:32;;;;;;;7.80;4.85;;;3.30;99.90;;;;;;5009685;28;20049;-78
2021/01/27 02:29:18;;;;;;;7.03;4.85;;;3.30;99.90;;;;;;5039455;28;20073;-78
2021/01/27 02:31:54;;;;;;;9.23;4.32;;;3.30;99.90;;;;;;5039594;28;20072;-78
2021/01/27 02:34:55;;;;;;;6.65;3.95;;;3.30;99.90;;;;;;5040295;28;20084;-79
2021/01/27 02:37:29;;;;;;;8.13;4.25;;;3.30;99.90;;;;;;5039581;28;20133;-78
2021/01/27 02:40:05;;;;;;;6.15;3.40;;;3.20;99.90;;;;;;5039737;28;20055;-78
2021/01/27 02:42:37;;;;;;;5.95;4.10;;;3.10;99.90;;;;;;5038790;28;20100;-78
2021/01/27 02:45:09;;;;;;;7.03;3.75;;;3.10;99.90;;;;;;5038547;28;20128;-79
2021/01/27 02:47:45;;;;;;;10.15;3.95;;;3.00;99.90;;;;;;5041618;28;20092;-78
2021/01/27 02:50:15;;;;;;;5.50;3.33;;;3.10;99.90;;;;;;5043724;28;20061;-78
2021/01/27 02:52:47;;;;;;;4.75;3.47;;;3.10;99.90;;;;;;5045644;28;20064;-78
2021/01/27 02:55:19;;;;;;;7.93;5.95;;;3.10;99.90;;;;;;5044998;28;20128;-78
2021/01/27 02:57:50;;;;;;;6.05;3.78;;;3.10;99.90;;;;;;5041194;28;20135;-78
2021/01/27 03:00:21;;;;;;;6.03;4.03;;;3.10;99.90;;;;;;5038781;28;20107;-78
2021/01/27 03:02:54;;;;;;;5.22;3.78;;;3.20;99.90;;;;;;5039680;28;20071;-78
2021/01/27 03:05:28;;;;;;;8.65;4.68;;;3.10;99.90;;;;;;5045685;28;20247;-78
2021/01/27 03:07:59;;;;;;;6.68;4.57;;;3.10;99.90;;;;;;5046440;28;20077;-80
2021/01/27 03:10:31;;;;;;;8.35;4.82;;;3.00;99.90;;;;;;5046739;28;20053;-81
2021/01/27 03:12:58;;;;;;;9.97;5.93;;;3.00;99.90;;;;;;5045562;28;20453;-81
2021/01/27 03:15:24;;;;;;;9.27;6.28;;;2.90;99.90;;;;;;5044520;28;20049;-82
2021/01/27 03:18:00;;;;;;;10.07;6.72;;;2.80;99.90;;;;;;5047401;28;20080;-80
2021/01/27 03:20:31;;;;;;;11.23;6.80;;;2.80;99.90;;;;;;5046716;28;20068;-80
2021/01/27 03:23:02;;;;;;;9.85;6.80;;;2.80;99.90;;;;;;5050790;28;20049;-80
2021/01/27 03:25:33;;;;;;;12.32;6.68;;;2.80;99.90;;;;;;5053991;28;20084;-78
2021/01/27 03:28:06;;;;;;;9.65;6.50;;;2.80;99.90;;;;;;5051043;28;20053;-80
2021/01/27 03:30:32;;;;;;;8.52;6.25;;;2.80;99.90;;;;;;5049803;28;20049;-80
2021/01/27 03:33:06;;;;;;;14.35;7.20;;;2.80;99.90;;;;;;5049166;28;20045;-79
2021/01/27 03:35:39;;;;;;;9.65;6.57;;;2.70;99.90;;;;;;5048157;28;20123;-78
2021/01/27 03:38:11;;;;;;;11.05;6.78;;;2.70;99.90;;;;;;5047791;28;20064;-79
2021/01/27 03:40:42;;;;;;;9.13;6.03;;;2.70;99.90;;;;;;5046889;28;20059;-80
2021/01/27 03:43:15;;;;;;;11.75;6.88;;;2.70;99.90;;;;;;5047352;28;20358;-80
2021/01/27 03:45:47;;;;;;;13.73;8.43;;;2.70;99.90;;;;;;5046226;28;20119;-79
2021/01/27 03:48:21;;;;;;;12.85;8.45;;;2.70;99.90;;;;;;5046852;28;20104;-80
2021/01/27 03:50:54;;;;;;;16.55;7.93;;;2.60;99.90;;;;;;5046866;28;20057;-80
2021/01/27 03:53:21;;;;;;;17.27;7.93;;;2.50;99.90;;;;;;5045807;28;20048;-80
2021/01/27 03:55:53;;;;;;;11.20;7.32;;;2.50;99.90;;;;;;5046275;28;20049;-79
2021/01/27 03:58:25;;;;;;;12.35;7.13;;;2.50;99.90;;;;;;5045440;28;20060;-79
2021/01/27 04:00:59;;;;;;;12.80;7.40;;;2.40;99.90;;;;;;5045601;28;20344;-79
2021/01/27 04:03:25;;;;;;;10.63;7.13;;;2.40;99.90;;;;;;5044633;28;20095;-79
2021/01/27 04:05:52;;;;;;;10.98;7.35;;;2.40;99.90;;;;;;5046194;28;20060;-79
2021/01/27 04:08:19;;;;;;;13.05;7.53;;;2.40;99.90;;;;;;5046214;28;20072;-80
2021/01/27 04:10:45;;;;;;;12.93;7.45;;;2.40;99.90;;;;;;5044656;28;20077;-80
2021/01/27 04:13:12;;;;;;;12.50;8.10;;;2.40;99.90;;;;;;5044292;28;20077;-80
2021/01/27 04:15:38;;;;;;;14.38;8.45;;;2.30;99.90;;;;;;5042373;28;20081;-79
2021/01/27 04:18:05;;;;;;;15.77;8.65;;;2.30;99.90;;;;;;5042173;28;20466;-81
2021/01/27 04:20:31;;;;;;;15.15;7.40;;;2.30;99.90;;;;;;5040443;28;20096;-80
2021/01/27 04:22:59;;;;;;;12.52;7.60;;;2.30;99.90;;;;;;5041412;28;20473;-80
2021/01/27 04:25:25;;;;;;;12.43;8.38;;;2.30;99.90;;;;;;5041078;28;20088;-80
2021/01/27 04:27:52;;;;;;;13.18;7.75;;;2.30;99.90;;;;;;5040373;28;20136;-79
2021/01/27 04:30:29;;;;;;;15.10;8.20;;;2.30;99.90;;;;;;5041378;28;20180;-80
2021/01/27 04:32:57;;;;;;;11.27;7.85;;;2.30;99.90;;;;;;5041609;28;20136;-80
2021/01/27 04:35:23;;;;;;;14.63;7.95;;;2.30;99.90;;;;;;5043079;28;20572;-80
2021/01/27 04:37:50;;;;;;;12.45;7.88;;;2.30;99.90;;;;;;5039339;28;20105;-80
2021/01/27 04:40:23;;;;;;;12.88;7.20;;;2.30;99.90;;;;;;5047649;28;20068;-80
2021/01/27 04:42:51;;;;;;;12.20;7.38;;;2.30;99.90;;;;;;5047183;28;20080;-80
2021/01/27 04:45:17;;;;;;;12.48;7.18;;;2.30;99.90;;;;;;5046688;28;20077;-80
2021/01/27 04:47:54;;;;;;;10.68;6.43;;;2.30;99.90;;;;;;5047464;28;20505;-80
2021/01/27 04:50:26;;;;;;;9.88;6.10;;;2.40;99.90;;;;;;5046976;28;20084;-80
2021/01/27 04:53:03;;;;;;;11.20;6.65;;;2.40;99.90;;;;;;5046540;28;20183;-79
2021/01/27 04:55:47;;;;;;;10.32;6.90;;;2.40;99.90;;;;;;5047227;28;20055;-79
2021/01/27 04:58:20;;;;;;;9.05;6.50;;;2.30;99.90;;;;;;5047199;28;20084;-79
2021/01/27 05:01:03;;;;;;;10.20;6.82;;;2.30;99.90;;;;;;5048703;28;20137;-79
2021/01/27 05:03:51;;;;;;;9.40;6.20;;;2.30;99.90;;;;;;5048294;28;20042;-79
2021/01/27 05:06:21;;;;;;;9.13;5.85;;;2.30;99.90;;;;;;5050232;28;20525;-79
2021/01/27 05:08:57;;;;;;;9.23;6.10;;;2.30;99.90;;;;;;5049477;28;20061;-80
2021/01/27 05:11:27;;;;;;;9.98;6.13;;;2.30;99.90;;;;;;5042810;28;20049;-79
2021/01/27 05:13:56;;;;;;;7.45;5.82;;;2.30;99.90;;;;;;5043812;28;20081;-79
2021/01/27 05:16:25;;;;;;;9.23;5.13;;;2.30;99.90;;;;;;5043849;28;20077;-78
2021/01/27 05:18:52;;;;;;;6.93;5.20;;;2.40;99.90;;;;;;5043372;28;20069;-79
2021/01/27 05:21:29;;;;;;;10.02;5.53;;;2.30;99.90;;;;;;5041491;28;20148;-78
2021/01/27 05:23:57;;;;;;;9.27;5.70;;;2.40;99.90;;;;;;5038701;28;20124;-78
2021/01/27 05:26:32;;;;;;;9.57;5.47;;;2.40;99.90;;;;;;5036330;28;20146;-78
2021/01/27 05:29:03;;;;;;;11.60;5.75;;;2.40;99.90;;;;;;5046735;28;20072;-79
2021/01/27 05:32:01;;;;;;;10.90;5.75;;;2.40;99.90;;;;;;5042497;28;20133;-78
2021/01/27 05:34:30;;;;;;;7.97;5.78;;;2.40;99.90;;;;;;5044497;28;20073;-79
2021/01/27 05:36:58;;;;;;;8.85;5.85;;;2.40;99.90;;;;;;5044074;28;20103;-79
2021/01/27 05:39:28;;;;;;;8.13;5.90;;;2.40;99.90;;;;;;5045374;28;20053;-80
2021/01/27 05:42:17;;;;;;;8.77;6.07;;;2.40;99.90;;;;;;5045151;28;20050;-79
2021/01/27 05:44:44;;;;;;;11.32;5.97;;;2.30;99.90;;;;;;5044685;28;20080;-79
2021/01/27 05:47:35;;;;;;;10.82;6.63;;;2.30;99.90;;;;;;5045127;28;20198;-79
2021/01/27 05:50:21;;;;;;;8.43;6.38;;;2.30;99.90;;;;;;5043217;28;20064;-80
2021/01/27 05:52:47;;;;;;;8.85;6.38;;;2.20;99.90;;;;;;5046282;28;20049;-78
2021/01/27 05:55:14;;;;;;;10.85;6.47;;;2.30;99.90;;;;;;5044277;28;20081;-79
2021/01/27 05:57:42;;;;;;;8.50;6.40;;;2.30;99.90;;;;;;5042596;28;20053;-79
2021/01/27 06:00:22;;;;;;;10.75;6.88;;;2.20;99.90;;;;;;5043981;28;20053;-79
2021/01/27 06:02:50;;;;;;;10.18;7.13;;;2.20;99.90;;;;;;5043635;28;20081;-78
2021/01/27 06:05:27;;;;;;;9.85;6.75;;;2.20;99.90;;;;;;5043732;28;20077;-78
2021/01/27 06:07:53;;;;;;;10.55;6.60;;;2.20;99.90;;;;;;5044384;28;20080;-79
2021/01/27 06:10:33;;;;;;;12.82;6.93;;;2.20;99.90;;;;;;5044788;28;20073;-79
2021/01/27 06:13:17;;;;;;;10.75;6.82;;;2.10;99.90;;;;;;5043821;28;20081;-79
2021/01/27 06:15:44;;;;;;;10.98;7.55;;;2.00;99.90;;;;;;5044213;28;20049;-79
2021/01/27 06:18:24;;;;;;;14.27;7.72;;;2.00;99.90;;;;;;5044883;28;20053;-79
2021/01/27 06:20:58;;;;;;;13.82;7.82;;;2.00;99.90;;;;;;5043123;28;20053;-78
2021/01/27 06:23:45;;;;;;;10.68;7.72;;;2.00;99.90;;;;;;5045629;28;20045;-79
2021/01/27 06:26:39;;;;;;;11.82;8.25;;;2.00;99.90;;;;;;5061255;28;20068;-79
2021/01/27 06:29:20;;;;;;;11.45;7.85;;;2.00;99.90;;;;;;5066567;28;20049;-79
2021/01/27 06:32:17;;;;;;;10.70;7.65;;;1.90;99.90;;;;;;5065669;28;20077;-79
2021/01/27 06:34:55;;;;;;;19.63;14.82;;;2.00;99.90;;;;;;5067026;28;20060;-78
2021/01/27 06:37:46;;;;;;;16.63;9.52;;;1.90;99.90;;;;;;5061794;28;20087;-77
2021/01/27 06:40:34;;;;;;;13.45;8.93;;;1.90;99.90;;;;;;5034277;28;20084;-77
2021/01/27 06:43:35;;;;;;;17.77;10.27;;;1.90;99.90;;;;;;5063052;28;20476;-78
2021/01/27 06:46:32;;;;;;;15.35;9.98;;;1.90;99.90;;;;;;5060850;28;20056;-78
2021/01/27 06:49:37;;;;;;;17.80;9.65;;;1.80;99.90;;;;;;5024042;28;20080;-77
2021/01/27 06:52:46;;;;;;;13.35;8.85;;;1.80;99.90;;;;;;5052363;28;20175;-77
2021/01/27 06:55:22;;;;;;;12.52;9.02;;;1.80;99.90;;;;;;5057378;28;20052;-80
2021/01/27 06:58:24;;;;;;;14.57;9.10;;;1.80;99.90;;;;;;5054603;28;20127;-76
2021/01/27 07:01:02;;;;;;;14.65;8.82;;;1.70;99.90;;;;;;5032684;28;20121;-77
2021/01/27 07:04:11;;;;;;;12.52;8.95;;;1.70;99.90;;;;;;5056970;28;20049;-77
2021/01/27 07:07:29;;;;;;;13.43;8.30;;;1.70;99.90;;;;;;5031865;28;20072;-80
2021/01/27 07:10:28;;;;;;;12.98;8.68;;;1.70;99.90;;;;;;4959338;29;20051;-80
2021/01/27 07:13:05;;;;;;;17.10;8.88;;;1.60;99.90;;;;;;4954887;29;20137;-79
2021/01/27 07:15:55;;;;;;;15.35;9.32;;;1.60;99.90;;;;;;5043007;28;20073;-78
2021/01/27 07:18:52;;;;;;;14.60;9.38;;;1.60;99.90;;;;;;5057491;28;20053;-79
2021/01/27 07:21:26;;;;;;;15.00;8.80;;;1.60;99.90;;;;;;5060488;28;20076;-79
2021/01/27 07:23:59;;;;;;;17.65;8.93;;;1.60;99.90;;;;;;5052673;28;20085;-80
2021/01/27 07:26:28;;;;;;;13.45;9.43;;;1.60;99.90;;;;;;5054519;28;20325;-79
2021/01/27 07:28:59;;;;;;;14.27;9.73;;;1.60;99.90;;;;;;5060866;28;20072;-81
2021/01/27 07:31:29;;;;;;;15.00;9.90;;;1.60;99.90;;;;;;5049909;28;20080;-80
2021/01/27 07:34:07;;;;;;;15.20;9.77;;;1.70;99.90;;;;;;5058904;28;20049;-80
2021/01/27 07:36:44;;;;;;;16.77;10.45;;;1.70;99.90;;;;;;5056378;28;20056;-80
2021/01/27 07:39:18;;;;;;;16.00;9.75;;;1.70;99.90;;;;;;5047727;28;20045;-79
2021/01/27 07:41:57;;;;;;;17.05;9.30;;;1.70;99.90;;;;;;5046432;28;20056;-80
2021/01/27 07:44:26;;;;;;;16.52;9.80;;;1.70;99.90;;;;;;5071713;22;20425;-80
2021/01/27 07:47:01;;;;;;;14.18;9.45;;;1.70;99.90;;;;;;5047654;28;20049;-82
2021/01/27 07:49:38;;;;;;;17.73;10.20;;;1.70;99.90;;;;;;5031707;28;20421;-79
2021/01/27 07:52:17;;;;;;;15.18;9.25;;;1.70;99.90;;;;;;5034433;28;20084;-79
2021/01/27 07:54:49;;;;;;;16.40;10.73;;;1.70;99.90;;;;;;5023495;28;20049;-81
2021/01/27 07:57:31;;;;;;;17.35;9.98;;;1.70;99.90;;;;;;5012853;28;20112;-79
2021/01/27 08:00:05;;;;;;;18.35;10.30;;;1.70;99.90;;;;;;5017173;28;20045;-80
2021/01/27 08:02:36;;;;;;;17.17;11.82;;;1.70;99.90;;;;;;5019450;28;20077;-79
2021/01/27 08:05:07;;;;;;;18.20;10.63;;;1.70;99.90;;;;;;5018339;28;20046;-80
2021/01/27 08:07:38;;;;;;;16.40;11.30;;;1.70;99.90;;;;;;5018364;28;20188;-82
2021/01/27 08:10:15;;;;;;;18.92;11.30;;;1.60;99.90;;;;;;5018573;28;20152;-80
2021/01/27 08:12:45;;;;;;;18.20;12.32;;;1.70;99.90;;;;;;5018928;28;20052;-79
2021/01/27 08:15:14;;;;;;;16.33;11.52;;;1.70;99.90;;;;;;5017872;28;20053;-80
2021/01/27 08:18:00;;;;;;;18.15;12.18;;;1.80;99.90;;;;;;5016089;28;20046;-80
2021/01/27 08:20:31;;;;;;;20.13;13.25;;;1.80;99.90;;;;;;5018245;28;20050;-81
2021/01/27 08:23:01;;;;;;;19.60;12.23;;;1.80;99.90;;;;;;5019130;28;20058;-79
2021/01/27 08:25:55;;;;;;;18.15;12.20;;;1.90;99.90;;;;;;5017528;28;20046;-80
2021/01/27 08:28:45;;;;;;;16.25;10.98;;;1.90;99.90;;;;;;5017008;28;20109;-82
2021/01/27 08:31:24;;;;;;;18.55;11.60;;;1.90;99.90;;;;;;5017152;28;20053;-80
2021/01/27 08:33:56;;;;;;;16.83;10.55;;;1.90;99.90;;;;;;5016328;28;20532;-79
2021/01/27 08:37:11;;;;;;;15.82;10.57;;;2.00;99.90;;;;;;5014325;28;20056;-80
2021/01/27 08:39:39;;;;;;;25.13;10.90;;;2.00;99.90;;;;;;5015309;28;20452;-80
2021/01/27 08:42:22;;;;;;;17.30;11.65;;;2.10;99.90;;;;;;5015705;28;20050;-78
2021/01/27 08:44:55;;;;;;;15.73;10.35;;;2.10;99.90;;;;;;5015803;28;20046;-81
2021/01/27 08:47:36;;;;;;;23.63;10.70;;;2.10;99.90;;;;;;5016403;28;20050;-82
2021/01/27 08:50:05;;;;;;;25.77;11.23;;;2.10;99.90;;;;;;5017029;28;20077;-83
2021/01/27 08:52:49;;;;;;;18.05;11.40;;;2.10;99.90;;;;;;5016362;28;20112;-83
2021/01/27 08:55:37;;;;;;;18.67;11.73;;;2.10;99.90;;;;;;5016516;28;20518;-81
2021/01/27 08:58:24;;;;;;;18.55;10.02;;;2.10;99.90;;;;;;5015597;28;20049;-81
2021/01/27 09:00:54;;;;;;;17.60;9.52;;;2.20;99.90;;;;;;5016521;28;20848;-79
2021/01/27 09:04:05;;;;;;;17.60;8.98;;;2.20;99.90;;;;;;5017373;28;20542;-80
2021/01/27 09:06:49;;;;;;;17.55;9.55;;;2.30;99.90;;;;;;5014431;28;20050;-81
2021/01/27 09:09:29;;;;;;;15.63;9.15;;;2.30;99.90;;;;;;5016448;28;20061;-80
2021/01/27 09:12:01;;;;;;;15.88;8.43;;;2.40;99.90;;;;;;5019116;28;20058;-82
2021/01/27 09:14:28;;;;;;;;;;;2.40;99.90;;;;;;5019756;28;20077;-80
2021/01/27 09:16:56;;;;;;;15.00;8.68;;;2.40;99.90;;;;;;5017975;28;19922;-80
2021/01/27 09:19:28;;;;;;;10.98;7.50;;;2.30;99.90;;;;;;5019256;28;20046;-80
2021/01/27 09:22:37;;;;;;;12.20;8.23;;;2.50;99.90;;;;;;5019097;28;20050;-79
2021/01/27 09:25:06;;;;;;;12.07;7.75;;;2.50;99.90;;;;;;5010832;28;20351;-80
2021/01/27 09:28:26;;;;;;;14.32;9.18;;;2.60;99.90;;;;;;5020466;28;20481;-81
2021/01/27 09:34:26;;;;;;;14.52;7.82;;;2.70;99.90;;;;;;5015308;28;20053;-81
2021/01/27 09:37:11;;;;;;;11.40;7.32;;;2.70;99.90;;;;;;5017216;28;20060;-81
2021/01/27 09:39:41;;;;;;;9.98;6.88;;;2.70;99.90;;;;;;5018164;28;20422;-80
2021/01/27 09:42:20;;;;;;;14.20;7.20;;;2.70;99.90;;;;;;5018553;28;20168;-80
2021/01/27 09:44:55;;;;;;;14.05;8.15;;;2.70;99.90;;;;;;5018180;28;20341;-80
2021/01/27 09:47:22;;;;;;;13.10;7.25;;;2.80;99.90;;;;;;5018348;28;20064;-80
2021/01/27 09:50:09;;;;;;;12.05;7.57;;;2.90;99.90;;;;;;5018836;28;20053;-78
2021/01/27 09:56:47;;;;;;;19.85;11.20;;;2.90;99.90;;;;;;4958769;28;20047;-80
2021/01/27 09:59:20;;;;;;;14.63;7.70;;;3.00;99.90;;;;;;4976258;28;20070;-83
2021/01/27 10:01:51;;;;;;;12.82;8.65;;;3.00;99.90;;;;;;5017508;28;20061;-81
2021/01/27 10:04:31;;;;;;;12.55;7.80;;;3.10;99.90;;;;;;5020570;28;20853;-80
2021/01/27 10:07:34;;;;;;;11.23;7.50;;;3.10;99.90;;;;;;5019158;28;20053;-80
2021/01/27 10:10:11;;;;;;;11.77;8.00;;;3.30;99.90;;;;;;5020499;28;20042;-83
2021/01/27 10:12:37;;;;;;;11.45;6.88;;;3.30;99.90;;;;;;5021267;28;20054;-83
2021/01/27 10:15:25;;;;;;;23.67;13.25;;;3.30;99.90;;;;;;5020571;28;20440;-81
2021/01/27 10:18:10;;;;;;;17.30;7.55;;;3.30;99.90;;;;;;5018740;28;20564;-79
2021/01/27 10:20:41;;;;;;;9.50;7.22;;;3.30;99.90;;;;;;5021013;28;20054;-84
2021/01/27 10:23:35;;;;;;;10.40;7.10;;;3.40;99.90;;;;;;5020091;28;20057;-81
2021/01/27 10:26:35;;;;;;;11.80;7.40;;;3.30;99.90;;;;;;5019855;28;20060;-82
2021/01/27 10:29:34;;;;;;;11.25;7.78;;;3.30;99.90;;;;;;5020365;28;20050;-81
2021/01/27 10:32:27;;;;;;;12.35;8.82;;;3.30;99.90;;;;;;5020904;28;20092;-81
2021/01/27 10:34:56;;;;;;;11.15;7.60;;;3.40;99.90;;;;;;5020705;28;20045;-82
2021/01/27 10:37:38;;;;;;;10.88;7.88;;;3.30;99.90;;;;;;5018626;28;20391;-82
2021/01/27 10:40:19;;;;;;;11.75;8.00;;;3.30;99.90;;;;;;5019622;28;20499;-79
2021/01/27 10:42:51;;;;;;;10.20;7.63;;;3.40;99.90;;;;;;5017427;28;20050;-81
2021/01/27 10:45:31;;;;;;;15.32;8.98;;;3.40;99.90;;;;;;5017949;28;20049;-80
2021/01/27 10:48:02;;;;;;;16.65;8.70;;;3.40;99.90;;;;;;5017748;28;20108;-79
2021/01/27 10:50:29;;;;;;;18.73;9.70;;;3.40;99.90;;;;;;5018675;28;20053;-81
2021/01/27 10:52:57;;;;;;;11.15;7.95;;;3.50;99.90;;;;;;5019789;28;20109;-83
2021/01/27 10:55:29;;;;;;;14.38;9.23;;;3.50;99.90;;;;;;5020008;28;20057;-81
2021/01/27 10:58:06;;;;;;;15.27;8.95;;;3.60;99.90;;;;;;5019216;28;20085;-81
2021/01/27 11:00:32;;;;;;;12.00;8.60;;;3.70;99.90;;;;;;5019525;28;20117;-81
2021/01/27 11:03:00;;;;;;;13.27;8.63;;;3.70;99.90;;;;;;5019805;28;20061;-81
2021/01/27 11:05:27;;;;;;;14.88;8.95;;;3.70;99.90;;;;;;5019750;28;20081;-79
2021/01/27 11:07:54;;;;;;;14.90;9.20;;;3.70;99.90;;;;;;5018711;28;20062;-80
2021/01/27 11:10:20;;;;;;;14.20;8.70;;;3.70;99.90;;;;;;5020364;28;20080;-82
2021/01/27 11:12:48;;;;;;;15.88;8.60;;;3.80;99.90;;;;;;5040238;28;20085;-84
2021/01/27 11:15:14;;;;;;;14.43;8.77;;;3.80;99.90;;;;;;5041719;28;20073;-84
2021/01/27 11:17:41;;;;;;;12.45;9.07;;;3.70;99.90;;;;;;5040881;28;20105;-81
2021/01/27 11:20:09;;;;;;;16.60;9.30;;;3.70;99.90;;;;;;5042994;28;20072;-81
2021/01/27 11:22:36;;;;;;;10.43;8.25;;;3.80;99.90;;;;;;5041482;28;20053;-82
2021/01/27 11:25:04;;;;;;;12.73;9.02;;;3.70;99.90;;;;;;5040298;28;20081;-80
2021/01/27 11:27:30;;;;;;;15.30;10.40;;;3.70;99.90;;;;;;5037818;28;20193;-82
2021/01/27 11:29:57;;;;;;;12.40;8.93;;;3.70;99.90;;;;;;5038210;28;20085;-80
2021/01/27 11:32:23;;;;;;;18.50;11.00;;;3.70;99.90;;;;;;5037870;28;20394;-82
2021/01/27 11:34:49;;;;;;;11.48;8.38;;;3.70;99.90;;;;;;5037932;28;20081;-81
2021/01/27 11:37:17;;;;;;;13.57;8.70;;;3.70;99.90;;;;;;5036909;28;20081;-81
2021/01/27 11:39:43;;;;;;;17.77;9.77;;;3.80;99.90;;;;;;5037547;28;20077;-80
2021/01/27 11:42:10;;;;;;;11.27;8.68;;;3.70;99.90;;;;;;5036468;28;20109;-81
2021/01/27 11:44:36;;;;;;;14.70;10.38;;;3.80;99.90;;;;;;5037560;28;20125;-77
2021/01/27 11:47:03;;;;;;;12.88;9.38;;;3.80;99.90;;;;;;5036565;28;20545;-83
2021/01/27 11:49:29;;;;;;;15.38;9.52;;;3.90;99.90;;;;;;5037272;28;20085;-83
2021/01/27 11:51:56;;;;;;;13.63;9.75;;;4.00;99.90;;;;;;5037541;28;20128;-83
2021/01/27 11:54:23;;;;;;;13.85;9.25;;;4.00;99.90;;;;;;5038059;28;20050;-80
2021/01/27 11:56:50;;;;;;;12.07;8.88;;;4.00;99.90;;;;;;5036216;28;20128;-81
2021/01/27 11:59:17;;;;;;;14.00;9.88;;;4.00;99.90;;;;;;5036648;28;20081;-80
2021/01/27 12:01:44;;;;;;;13.23;9.10;;;4.00;99.90;;;;;;5038643;28;20103;-83
2021/01/27 12:04:10;;;;;;;13.88;10.52;;;4.00;99.90;;;;;;5041358;28;20050;-80
2021/01/27 12:06:37;;;;;;;19.00;9.50;;;4.00;99.90;;;;;;5040125;28;20060;-79
2021/01/27 12:09:03;;;;;;;16.58;10.75;;;4.10;99.90;;;;;;5042455;28;20057;-80
2021/01/27 12:11:30;;;;;;;21.23;16.98;;;4.10;99.90;;;;;;5037883;28;20050;-81
2021/01/27 12:13:57;;;;;;;18.27;10.00;;;4.20;99.90;;;;;;5037037;28;20077;-81
2021/01/27 12:16:23;;;;;;;17.85;9.77;;;4.30;99.90;;;;;;5037133;28;20068;-82
2021/01/27 12:18:50;;;;;;;13.38;9.48;;;4.40;99.90;;;;;;5037685;28;20505;-82
2021/01/27 12:21:16;;;;;;;16.40;10.30;;;4.30;99.90;;;;;;5037901;28;20092;-81
2021/01/27 12:23:43;;;;;;;14.10;9.90;;;4.30;99.90;;;;;;5037801;28;20147;-81
2021/01/27 12:26:09;;;;;;;17.15;10.93;;;4.30;99.90;;;;;;5037613;28;20082;-84
2021/01/27 12:28:37;;;;;;;16.95;11.68;;;4.20;99.90;;;;;;5037353;28;20421;-82
2021/01/27 12:31:04;;;;;;;14.07;10.48;;;4.10;99.90;;;;;;5039273;28;20045;-83
2021/01/27 12:33:30;;;;;;;14.63;10.40;;;4.30;99.90;;;;;;5039152;28;20083;-81
2021/01/27 12:35:57;;;;;;;15.20;10.40;;;4.40;99.90;;;;;;5038217;28;20540;-82
2021/01/27 12:38:23;;;;;;;16.92;10.60;;;4.40;99.90;;;;;;5036866;28;20073;-84
2021/01/27 12:40:50;;;;;;;17.23;9.95;;;4.50;99.90;;;;;;5037593;28;20077;-84
2021/01/27 12:43:17;;;;;;;17.42;9.65;;;4.50;99.90;;;;;;5037227;28;20433;-82
2021/01/27 12:45:45;;;;;;;12.15;9.30;;;4.50;99.90;;;;;;5037458;28;20099;-81
2021/01/27 12:48:11;;;;;;;15.35;9.50;;;4.50;99.90;;;;;;5039747;28;20073;-82
2021/01/27 12:50:37;;;;;;;10.27;8.48;;;4.60;99.90;;;;;;5041727;28;20088;-83
2021/01/27 12:53:04;;;;;;;18.55;9.07;;;4.60;99.90;;;;;;5041202;28;20093;-81
2021/01/27 12:55:30;;;;;;;12.00;9.38;;;4.70;99.90;;;;;;5041185;28;20088;-81
2021/01/27 12:57:59;;;;;;;12.82;9.05;;;4.70;99.90;;;;;;5039499;28;20505;-83
2021/01/27 13:00:26;;;;;;;13.02;9.65;;;4.80;99.90;;;;;;5040635;28;20056;-82
2021/01/27 13:02:55;;;;;;;12.85;8.85;;;4.90;99.90;;;;;;5041566;28;20087;-82
2021/01/27 13:05:23;;;;;;;15.75;11.25;;;4.80;99.90;;;;;;5041906;28;20067;-82
2021/01/27 13:07:50;;;;;;;15.27;10.95;;;4.90;99.90;;;;;;5039019;28;20049;-81
2021/01/27 13:10:18;;;;;;;13.38;9.45;;;4.90;99.90;;;;;;5041291;28;20053;-81
2021/01/27 13:12:45;;;;;;;13.07;9.00;;;4.90;99.90;;;;;;5040628;28;20128;-79
2021/01/27 13:15:15;;;;;;;14.93;9.55;;;4.90;99.90;;;;;;5041477;28;20089;-84
2021/01/27 13:17:42;;;;;;;11.40;8.20;;;5.00;99.90;;;;;;5040835;28;20119;-86
2021/01/27 13:20:11;;;;;;;11.18;8.35;;;5.00;99.90;;;;;;5042838;28;20453;-81
2021/01/27 13:22:38;;;;;;;10.90;8.32;;;5.10;99.90;;;;;;5042349;28;20115;-82
2021/01/27 13:25:05;;;;;;;11.45;7.88;;;5.20;99.90;;;;;;5041138;28;20088;-85
2021/01/27 13:27:32;;;;;;;11.98;9.25;;;5.20;99.90;;;;;;5040487;28;20045;-84
2021/01/27 13:29:58;;;;;;;12.45;8.57;;;5.30;99.90;;;;;;5041079;28;20081;-81